Tiempo atmosférico en la estación meteorológica de Cedrillas, Teruel (1380 m.)



Fecha
DESCASC
Temp. máxima en grados centígrados (hora)
DESCASC
Temp. mínima en grados centígrados (hora)
DESCASC
Temp. media en grados centígrados
DESCASC
Racha de viento máxima en m/sg (hora)
DESCASC
Velocidad máxima media en intervalos de 10 minutos(hora)
DESCASC
Precipitaciones diarias en mm
DESCASC
Precipitaciones de 00:00 a 06:00 en mm
DESCASC
Precipitaciones de 06:00 a 12:00 en mm
DESCASC
Precipitaciones de 12:00 a 18:00 en mm
DESCASC
Precipitaciones de 18:00 a 24:00 en mm
DESCASC
11-08-2020 26.3 (16:40) 14.8 (23:50) 20.5 14.44 (17:00) 9.72 (21:00) 0.4 0 0 0 0.4
10-08-2020 29.3 (14:10) 17.3 (05:20) 23.3 16.39 (14:20) 8.06 (14:20) 0 0 0 0 0
09-08-2020 31.6 (15:10) 13.1 (07:20) 22.4 12.22 (16:20) 7.78 (17:30) 0 0 0 0 0
08-08-2020 32.8 (14:20) 13.5 (06:10) 23.1 13.06 (16:50) 9.44 (18:10) 3.6 0 0 1.6 2
07-08-2020 33.8 (15:30) 14.5 (00:00) 24.1 12.22 (17:00) 8.33 (17:00) 1.8 0 0 0 1.8
06-08-2020 31.3 (16:40) 14.6 (07:10) 22.9 9.72 (18:40) 6.39 (18:50) 0 0 0 0 0
05-08-2020 30.7 (17:10) 11.7 (00:00) 21.2 8.89 (18:50) 6.11 (18:50) 0 0 0 0 0
04-08-2020 26.9 (19:00) 10.2 (05:20) 18.5 8.06 (16:10) 4.44 (11:00) 0 0 0 0 0
03-08-2020 25.7 (15:40) 13.1 (06:40) 19.4 9.72 (14:50) 5.83 (19:30) 0 0 0 0 0
02-08-2020 31.1 (16:10) 11.5 (07:10) 21.3 13.89 (14:20) 6.11 (13:50) 0 0 0 0 0
01-08-2020 33.1 (15:20) 14.7 (00:00) 23.9 14.17 (16:00) 8.61 (15:30) 0 0 0 0 0
31-07-2020 33.7 (16:20) 19.3 (07:00) 26.5 11.67 (16:20) 7.78 (19:50) 0 0 0 0 0
30-07-2020 31.1 (15:30) 16.5 (00:00) 23.8 21.39 (22:20) 12.5 (22:20) 0 0 0 0 0
29-07-2020 29 (16:40) 14.3 (00:00) 21.7 11.67 (12:50) 8.06 (13:10) 0 0 0 0 0
28-07-2020 30.2 (14:40) 19.1 (23:59) 24.7 13.61 (16:20) 8.61 (15:10) 0 0 0 0 0
27-07-2020 34.4 (16:40) 17.2 (00:00) 25.8 10.56 (14:10) 6.94 (17:50) 0 0 0 0 0
26-07-2020 31.4 (16:10) 14.8 (00:00) 23.1 17.5 (13:10) 6.67 (19:00) 0 0 0 0 0
25-07-2020 29.8 (16:10) 11.2 (07:10) 20.5 10.56 (14:50) 6.67 (18:20) 0 0 0 0 0
24-07-2020 27.7 (14:00) 12.1 (00:00) 19.9 7.5 (20:40) 5 (20:40) 0 0 0 0 0
23-07-2020 30.3 (18:00) 8.6 (00:00) 19.4 9.72 (20:20) 6.67 (20:20) 0 0 0 0 0
22-07-2020 22.8 (13:40) 13.7 (23:59) 18.2 11.11 (15:00) 7.22 (15:00) 2.4 0.2 0.2 2 0
21-07-2020 29 (14:20) 15.4 (00:00) 22.2 11.94 (17:40) 8.61 (17:40) 0 0 0 0 0
20-07-2020 29 (15:00) 14.9 (06:30) 21.9 11.11 (17:20) 7.5 (17:00) 0 0 0 0 0
19-07-2020 29.4 (14:50) 14.1 (00:00) 21.8 10.28 (14:30) 6.94 (18:40) 0 0 0 0 0
18-07-2020 29.1 (18:30) 12.2 (00:00) 20.7 8.61 (16:50) 5.83 (19:20) 0 0 0 0 0
17-07-2020 26.4 (17:10) 9.6 (00:00) 18 9.72 (16:10) 5.28 (18:30) 0 0 0 0 0
16-07-2020 26.5 (17:20) 8.7 (00:00) 17.6 8.06 (15:30) 5.56 (18:50) 0 0 0 0 0
15-07-2020 24.4 (18:00) 7.4 (06:20) 15.9 9.72 (17:40) 5.83 (17:40) 0 0 0 0 0
14-07-2020 22 (14:10) 10.7 (00:00) 16.3 10 (14:40) 6.39 (14:40) 0 0 0 0 0

Gráficas

Temp. máximas Temp. mínimas Temp. medias Precipitaciones Rachas de viento máximas Velocidades máximas media en intervalos de 10 minutos

Datos horarios

Fecha y hora oficial Temperatura (ºC) Velocidad del viento (km/h) Dirección del viento Racha (km/h) Dirección de racha Precipitación (mm) Presión (hPa) Tendencia (hPa) Humedad (%)
2020-08-12 23:00:00 17.1 12 Sur 19 Sur 0 -- -- 87
2020-08-12 22:00:00 18.4 13 Sudeste 34 Sudeste 0 -- -- 82
2020-08-12 21:00:00 21 15 Sur 35 Sudoeste 0 -- -- 69
2020-08-12 20:00:00 23.9 26 Sudoeste 36 Sudoeste 0 -- -- 29
2020-08-12 19:00:00 25.1 24 Sudoeste 41 Sudoeste 0 -- -- 28
2020-08-12 18:00:00 25.7 20 Sudoeste 40 Sur 0 -- -- 31
2020-08-12 17:00:00 24.8 26 Sudoeste 45 Sur 0 -- -- 30
2020-08-12 16:00:00 24.8 23 Sudoeste 46 Sudoeste 0 -- -- 32
2020-08-12 15:00:00 24 29 Sudoeste 41 Sudoeste 0 -- -- 40
2020-08-12 14:00:00 22.9 25 Sudoeste 36 Sudoeste 0 -- -- 42
2020-08-12 13:00:00 22 18 Sudoeste 33 Sudoeste 0 -- -- 53
2020-08-12 12:00:00 20.8 17 Sudoeste 31 Sudoeste 0 -- -- 57
2020-08-12 11:00:00 19.9 9 Sur 17 Sudoeste 0 -- -- 57
2020-08-12 10:00:00 18 8 Sur 18 Sur 0 -- -- 65
2020-08-12 09:00:00 15.9 7 Sur 15 Sudeste 0 -- -- 74
2020-08-12 08:00:00 13.7 8 Sur 16 Sur 0 -- -- 79
2020-08-12 07:00:00 12.1 13 Sur 22 Sur 0 -- -- 87
2020-08-12 06:00:00 12.3 14 Sur 23 Sudeste 0 -- -- 86
2020-08-12 05:00:00 12.1 9 Sur 16 Sudeste 0 -- -- 88
2020-08-12 04:00:00 12.9 11 Este 23 Este 0.8 -- -- 90
2020-08-12 03:00:00 12.6 9 Sudeste 19 Sudoeste 3.8 -- -- 94
2020-08-12 02:00:00 12.9 6 Noroeste 34 Oeste 2.8 -- -- 90
2020-08-12 01:00:00 15.3 12 Sudoeste 23 Oeste 0 -- -- 81
2020-08-12 00:00:00 14.8 6 Este 12 Sur 0 -- -- 87
2020-08-11 23:00:00 15.8 11 Sur 44 Sur 0.4 -- -- 80
2020-08-11 22:00:00 19.1 28 Sudeste 45 Sudeste 0 -- -- 57
2020-08-11 21:00:00 19.4 35 Sudeste 50 Sudeste 0 -- -- 52
2020-08-11 20:00:00 20.6 28 Sudeste 44 Sudeste 0 -- -- 48
2020-08-11 19:00:00 23.1 28 Sudeste 43 Sudeste 0 -- -- 47
2020-08-11 18:00:00 24.2 28 Sudeste 50 Sudeste 0 -- -- 40
2020-08-11 17:00:00 25.5 30 Sudeste 52 Sudeste 0 -- -- 30
2020-08-11 16:00:00 24.8 26 Sudeste 43 Sudeste 0 -- -- 31
2020-08-11 15:00:00 23.6 22 Sudeste 34 Sudeste 0 -- -- 34
2020-08-11 14:00:00 22.7 19 Sur 39 Sudeste 0 -- -- 35
2020-08-11 13:00:00 24.6 20 Sudeste 38 Sudeste 0 -- -- 32
2020-08-11 12:00:00 21.4 22 Sudeste 40 Sudeste 0 -- -- 36
2020-08-11 11:00:00 20.3 21 Sur 32 Sudeste 0 -- -- 42
2020-08-11 10:00:00 19.4 20 Sur 28 Sudeste 0 -- -- 45
2020-08-11 09:00:00 19.2 14 Sur 22 Sudeste 0 -- -- 40
2020-08-11 08:00:00 17 12 Sudeste 16 Sur 0 -- -- 51
2020-08-11 07:00:00 15.6 9 Sur 15 Sur 0 -- -- 60
2020-08-11 06:00:00 16 9 Sur 19 Sur 0 -- -- 81
2020-08-11 05:00:00 16.8 13 Sur 23 Sudeste 0 -- -- 89
2020-08-11 04:00:00 16.9 16 Sur 24 Sur 0 -- -- 95
2020-08-11 03:00:00 17.3 13 Sur 19 Sur 0 -- -- 94
2020-08-11 02:00:00 16.1 4 Sudeste 6 Sur 0 -- -- 93
2020-08-11 01:00:00 16.9 3 Sudeste 8 Este 0 -- -- 91
2020-08-11 00:00:00 17.8 0 Calma 12 Sur 0 -- -- 90
2020-08-10 23:00:00 18.7 8 Sudeste 21 Sur 0 -- -- 87
2020-08-10 22:00:00 19.4 13 Sudeste 22 Sur 0 -- -- 82
2020-08-10 21:00:00 20.9 18 Sur 25 Sur 0 -- -- 72
2020-08-10 20:00:00 24.4 15 Este 34 Este 0 -- -- 41
2020-08-10 19:00:00 25.9 23 Nordeste 32 Nordeste 0 -- -- 36
2020-08-10 18:00:00 27.4 6 Norte 26 Noroeste 0 -- -- 31
2020-08-10 17:00:00 27.4 11 Norte 32 Oeste 0 -- -- 32
2020-08-10 16:00:00 26.7 19 Noroeste 39 Noroeste 0 -- -- 32
2020-08-10 15:00:00 28.2 22 Sudoeste 59 Oeste 0 -- -- 24
2020-08-10 14:00:00 29 14 Sur 31 Sudoeste 0 -- -- 25
2020-08-10 13:00:00 28.6 15 Sur 35 Sudeste 0 -- -- 28
2020-08-10 12:00:00 28.1 24 Sur 34 Sur 0 -- -- 29
2020-08-10 11:00:00 26.3 20 Sur 29 Sur 0 -- -- 30
2020-08-10 10:00:00 24.7 15 Sur 23 Sur 0 -- -- 33
2020-08-10 09:00:00 21.2 14 Sur 21 Sur 0 -- -- 43
2020-08-10 08:00:00 20 13 Sur 19 Sur 0 -- -- 46
2020-08-10 07:00:00 18.9 14 Sur 20 Sur 0 -- -- 49
2020-08-10 06:00:00 18.5 10 Sur 19 Sudeste 0 -- -- 50
2020-08-10 05:00:00 18.1 12 Sur 26 Sur 0 -- -- 57
2020-08-10 04:00:00 18.4 18 Sur 28 Sur 0 -- -- 55
2020-08-10 03:00:00 18.1 15 Sur 28 Sudeste 0 -- -- 69
2020-08-10 02:00:00 19 19 Sur 35 Sur 0 -- -- 68
2020-08-10 01:00:00 18.3 17 Sur 24 Sur 0 -- -- 77
2020-08-10 00:00:00 18.2 11 Sur 28 Sur 0 -- -- 88
2020-08-09 23:00:00 19 18 Sur 29 Sur 0 -- -- 85
2020-08-09 22:00:00 20.6 15 Sur 25 Sur 0 -- -- 74
2020-08-09 21:00:00 22.9 12 Este 32 Este 0 -- -- 51
2020-08-09 20:00:00 25 22 Este 38 Este 0 -- -- 51
2020-08-09 19:00:00 26.1 9 Noroeste 36 Este 0 -- -- 45
2020-08-09 18:00:00 27.6 22 Sudeste 40 Este 0 -- -- 43
2020-08-09 17:00:00 29.6 24 Sudeste 44 Sur 0 -- -- 35
2020-08-09 16:00:00 31.1 23 Sudeste 39 Sudeste 0 -- -- 30
2020-08-09 15:00:00 31.5 20 Sur 31 Sudoeste 0 -- -- 27
2020-08-09 14:00:00 31.1 16 Sur 30 Sur 0 -- -- 26
2020-08-09 13:00:00 30.3 14 Sudeste 25 Sudeste 0 -- -- 27
2020-08-09 12:00:00 29 16 Sur 24 Sur 0 -- -- 30
2020-08-09 11:00:00 27.5 17 Sur 22 Sur 0 -- -- 33
2020-08-09 10:00:00 22.5 3 Noroeste 4 Noroeste 0 -- -- 53
2020-08-09 09:00:00 17.3 0 Calma 6 Este 0 -- -- 72
2020-08-09 08:00:00 14.4 0 Calma 6 Nordeste 0 -- -- 81
2020-08-09 07:00:00 13.2 0 Calma 6 Sudeste 0 -- -- 80
2020-08-09 06:00:00 13.9 6 Este 13 Sudoeste 0 -- -- 77
2020-08-09 05:00:00 14.9 7 Este 11 Este 0 -- -- 73
2020-08-09 04:00:00 16.1 3 Norte 15 Nordeste 0 -- -- 67
2020-08-09 03:00:00 16.8 6 Este 17 Este 0 -- -- 71
2020-08-09 02:00:00 18.3 5 Sudoeste 10 Sudeste 0 -- -- 58
2020-08-09 01:00:00 15.6 6 Este 10 Este 0 -- -- 77
2020-08-09 00:00:00 16.2 3 Sudeste 8 Este 0 -- -- 74
2020-08-08 23:00:00 16.3 5 Oeste 18 Este 0 -- -- 80
2020-08-08 22:00:00 17.4 7 Este 12 Nordeste 0 -- -- 73
2020-08-08 21:00:00 19.7 4 Este 42 Nordeste 0.4 -- -- 59
2020-08-08 20:00:00 18.4 6 Nordeste 39 Nordeste 0.6 -- -- 74
2020-08-08 19:00:00 17.4 27 Este 45 Este 1 -- -- 75
2020-08-08 18:00:00 17.8 28 Este 40 Nordeste 1.6 -- -- 74
2020-08-08 17:00:00 21.1 29 Este 47 Este 0 -- -- 60
2020-08-08 16:00:00 27.6 17 Sur 41 Sudoeste 0 -- -- 30
2020-08-08 15:00:00 29.8 14 Sudoeste 30 Sudoeste 0 -- -- 33
2020-08-08 14:00:00 32.5 10 Sudeste 27 Sudoeste 0 -- -- 28
2020-08-08 13:00:00 31.5 9 Sudoeste 25 Sudoeste 0 -- -- 29
2020-08-08 12:00:00 30.3 10 Sudeste 20 Sudeste 0 -- -- 31
2020-08-08 11:00:00 28.9 11 Sur 20 Sudeste 0 -- -- 33
2020-08-08 10:00:00 26.5 9 Sudeste 15 Sudeste 0 -- -- 40
2020-08-08 09:00:00 17.1 0 Calma 4 Oeste 0 -- -- 76
2020-08-08 08:00:00 14.6 0 Calma 4 Este 0 -- -- 84
2020-08-08 07:00:00 13.6 2 Nordeste 8 Este 0 -- -- 84
2020-08-08 06:00:00 13.9 8 Este 10 Este 0 -- -- 83
2020-08-08 05:00:00 14.5 2 Sudeste 14 Este 0 -- -- 82
2020-08-08 04:00:00 16.1 6 Este 8 Este 0 -- -- 76
2020-08-08 03:00:00 16.3 3 Norte 10 Norte 0 -- -- 76
2020-08-08 02:00:00 17.5 6 Norte 20 Nordeste 0 -- -- 71
2020-08-08 01:00:00 16.3 13 Norte 25 Norte 0 -- -- 78
2020-08-08 00:00:00 17.4 6 Nordeste 10 Este 0 -- -- 75
2020-08-07 23:00:00 18.2 3 Nordeste 19 Sudeste 0 -- -- 73
2020-08-07 22:00:00 18.9 10 Nordeste 31 Este 0 -- -- 65
2020-08-07 21:00:00 18.3 16 Este 36 Este 0.8 -- -- 73
2020-08-07 20:00:00 20.8 14 Nordeste 37 Este 1 -- -- 64
2020-08-07 19:00:00 21 27 Este 37 Este 0 -- -- 57
2020-08-07 18:00:00 23.8 14 Nordeste 35 Sudeste 0 -- -- 61
2020-08-07 17:00:00 28.3 30 Sudeste 44 Sudeste 0 -- -- 35
2020-08-07 16:00:00 32.5 10 Sudoeste 22 Sur 0 -- -- 26
2020-08-07 15:00:00 33.4 7 Oeste 14 Noroeste 0 -- -- 21
2020-08-07 14:00:00 32 9 Oeste 21 Oeste 0 -- -- 23
2020-08-07 13:00:00 30.6 12 Oeste 21 Oeste 0 -- -- 29
2020-08-07 12:00:00 29.3 14 Oeste 23 Sudoeste 0 -- -- 31
2020-08-07 11:00:00 27.7 14 Sudoeste 21 Oeste 0 -- -- 37
2020-08-07 10:00:00 24.8 9 Sur 13 Sur 0 -- -- 48
2020-08-07 09:00:00 19.3 0 Calma 4 Oeste 0 -- -- 71
2020-08-07 08:00:00 15.6 0 Calma 8 Este 0 -- -- 81
2020-08-07 07:00:00 15 0 Calma 8 Este 0 -- -- 81
2020-08-07 06:00:00 15.8 0 Calma 7 Sudoeste 0 -- -- 77
2020-08-07 05:00:00 16.5 2 Este 4 Este 0 -- -- 75
2020-08-07 04:00:00 17 0 Calma 6 Sudeste 0 -- -- 78
2020-08-07 03:00:00 17.6 6 Sudeste 13 Sur 0 -- -- 78
2020-08-07 02:00:00 18.1 10 Sur 12 Sur 0 -- -- 79
2020-08-07 01:00:00 18.1 10 Sur 14 Sur 0 -- -- 83
2020-08-07 00:00:00 18.5 9 Sur 16 Sur 0 -- -- 80
2020-08-06 23:00:00 19.5 13 Sur 19 Sur 0 -- -- 76
2020-08-06 22:00:00 20.6 13 Sur 21 Sudeste 0 -- -- 73
2020-08-06 21:00:00 22.9 15 Sur 31 Sur 0 -- -- 65
2020-08-06 20:00:00 25.5 18 Sur 32 Sudeste 0 -- -- 55
2020-08-06 19:00:00 27.4 21 Sur 35 Sudeste 0 -- -- 47
2020-08-06 18:00:00 29.2 18 Sudeste 35 Sudeste 0 -- -- 39
2020-08-06 17:00:00 30.3 11 Sur 27 Sur 0 -- -- 30
2020-08-06 16:00:00 30 13 Sudoeste 24 Sur 0 -- -- 30
2020-08-06 15:00:00 30.6 12 Oeste 28 Sudoeste 0 -- -- 30
2020-08-06 14:00:00 29.4 10 Sur 27 Sudeste 0 -- -- 34
2020-08-06 13:00:00 28 11 Sur 22 Sudeste 0 -- -- 36
2020-08-06 12:00:00 26.8 13 Sur 23 Sudeste 0 -- -- 42
2020-08-06 11:00:00 24.8 12 Sur 18 Sur 0 -- -- 48
2020-08-06 10:00:00 21.7 10 Sur 18 Sur 0 -- -- 56
2020-08-06 09:00:00 18.7 8 Sur 12 Sur 0 -- -- 70
2020-08-06 08:00:00 15.9 0 Calma 4 Este 0 -- -- 80
2020-08-06 07:00:00 14.7 3 Este 9 Este 0 -- -- 87
2020-08-06 06:00:00 15.7 4 Este 10 Sur 0 -- -- 88
2020-08-06 05:00:00 16.9 7 Sur 15 Sur 0 -- -- 97
2020-08-06 04:00:00 17.3 10 Sur 17 Sur 0 -- -- 97
2020-08-06 03:00:00 17.5 9 Sur 17 Sur 0 -- -- 95
2020-08-06 02:00:00 17.9 10 Sur 15 Sur 0 -- -- 93
2020-08-06 01:00:00 18.7 6 Sur 15 Sudeste 0 -- -- 91
2020-08-06 00:00:00 19 8 Sur 17 Sudeste 0 -- -- 90
2020-08-05 23:00:00 19.2 9 Sur 23 Sudeste 0 -- -- 90
2020-08-05 22:00:00 19.8 12 Sur 26 Sudeste 0 -- -- 87
2020-08-05 21:00:00 21.5 20 Sur 28 Sur 0 -- -- 78
2020-08-05 20:00:00 24.8 18 Sur 31 Sur 0 -- -- 64
2020-08-05 19:00:00 27.5 21 Sur 32 Sur 0 -- -- 52
2020-08-05 18:00:00 29.6 14 Sur 28 Oeste 0 -- -- 41
2020-08-05 17:00:00 30.1 15 Oeste 29 Sudoeste 0 -- -- 23
2020-08-05 16:00:00 29.7 14 Oeste 26 Oeste 0 -- -- 21
2020-08-05 15:00:00 28.5 10 Oeste 22 Oeste 0 -- -- 22
2020-08-05 14:00:00 27.7 12 Norte 24 Sudoeste 0 -- -- 24
2020-08-05 13:00:00 26.1 15 Oeste 25 Oeste 0 -- -- 30
2020-08-05 12:00:00 24.3 10 Sur 21 Sudeste 0 -- -- 49
2020-08-05 11:00:00 22.3 13 Sur 23 Sudeste 0 -- -- 58
2020-08-05 10:00:00 19.9 13 Sur 19 Sur 0 -- -- 72
2020-08-05 09:00:00 16.4 5 Oeste 8 Sudoeste 0 -- -- 83
2020-08-05 08:00:00 13.7 3 Sudeste 12 Este 0 -- -- 91
2020-08-05 07:00:00 12 0 Calma 8 Este 0 -- -- 91
2020-08-05 06:00:00 13 7 Este 8 Este 0 -- -- 92
2020-08-05 05:00:00 13.2 2 Sudeste 8 Sudeste 0 -- -- 93
2020-08-05 04:00:00 13.2 4 Este 9 Este 0 -- -- 92
2020-08-05 03:00:00 13.3 6 Sudeste 9 Este 0 -- -- 89
2020-08-05 02:00:00 12.9 7 Este 13 Sur 0 -- -- 84
2020-08-05 01:00:00 14.1 4 Sudeste 9 Sur 0 -- -- 74
2020-08-05 00:00:00 15.5 0 Calma 10 Sur 0 -- -- 64
2020-08-04 23:00:00 16.6 6 Sudeste 8 Sudeste 0 -- -- 60
2020-08-04 22:00:00 18.9 5 Nordeste 14 Norte 0 -- -- 41
2020-08-04 21:00:00 21.8 8 Norte 23 Nordeste 0 -- -- 35
2020-08-04 20:00:00 23.6 16 Nordeste 26 Nordeste 0 -- -- 32
2020-08-04 19:00:00 26.9 10 Noroeste 23 Noroeste 0 -- -- 19
2020-08-04 18:00:00 26.8 13 Noroeste 25 Oeste 0 -- -- 20
2020-08-04 17:00:00 26 10 Noroeste 29 Oeste 0 -- -- 21
2020-08-04 16:00:00 25.2 11 Noroeste 24 Oeste 0 -- -- 20
2020-08-04 15:00:00 24.2 10 Noroeste 20 Oeste 0 -- -- 23
2020-08-04 14:00:00 22.8 9 Oeste 22 Oeste 0 -- -- 28
2020-08-04 13:00:00 21.6 8 Noroeste 21 Norte 0 -- -- 31
2020-08-04 12:00:00 20.5 11 Norte 27 Norte 0 -- -- 38
2020-08-04 11:00:00 18.9 16 Norte 26 Nordeste 0 -- -- 43
2020-08-04 10:00:00 17.6 14 Noroeste 23 Noroeste 0 -- -- 45
2020-08-04 09:00:00 15.2 8 Norte 19 Norte 0 -- -- 64
2020-08-04 08:00:00 12.3 8 Nordeste 19 Nordeste 0 -- -- 72
2020-08-04 07:00:00 10.6 5 Nordeste 20 Este 0 -- -- 78
2020-08-04 06:00:00 10.7 6 Nordeste 12 Nordeste 0 -- -- 77
2020-08-04 05:00:00 10.7 6 Norte 11 Norte 0 -- -- 75
2020-08-04 04:00:00 10.7 8 Este 13 Noroeste 0 -- -- 76
2020-08-04 03:00:00 11.8 9 Norte 13 Nordeste 0 -- -- 71
2020-08-04 02:00:00 12.6 8 Nordeste 14 Nordeste 0 -- -- 69
2020-08-04 01:00:00 13.6 6 Nordeste 14 Norte 0 -- -- 66
2020-08-04 00:00:00 14.8 7 Norte 13 Norte 0 -- -- 63
2020-08-03 23:00:00 16.5 4 Este 13 Norte 0 -- -- 53
2020-08-03 22:00:00 18.2 6 Norte 18 Norte 0 -- -- 40
2020-08-03 21:00:00 20.9 11 Norte 30 Norte 0 -- -- 31
2020-08-03 20:00:00 23.6 19 Norte 33 Noroeste 0 -- -- 28
2020-08-03 19:00:00 24.3 15 Norte 30 Noroeste 0 -- -- 31
2020-08-03 18:00:00 25.2 17 Noroeste 33 Noroeste 0 -- -- 30
2020-08-03 17:00:00 25.2 18 Noroeste 31 Oeste 0 -- -- 28
2020-08-03 16:00:00 25.2 19 Oeste 28 Oeste 0 -- -- 27
2020-08-03 15:00:00 24.5 18 Noroeste 35 Oeste 0 -- -- 26
2020-08-03 14:00:00 23.8 16 Noroeste 26 Noroeste 0 -- -- 29
2020-08-03 13:00:00 22.6 15 Noroeste 28 Noroeste 0 -- -- 29
2020-08-03 12:00:00 21.4 12 Nordeste 23 Nordeste 0 -- -- 34
2020-08-03 11:00:00 19.5 9 Norte 17 Nordeste 0 -- -- 42
2020-08-03 10:00:00 16.4 12 Norte 24 Norte 0 -- -- 51
2020-08-03 09:00:00 14.9 17 Norte 26 Norte 0 -- -- 66
2020-08-03 08:00:00 13.7 6 Noroeste 17 Noroeste 0 -- -- 79
2020-08-03 07:00:00 13.2 6 Norte 23 Norte 0 -- -- 80
2020-08-03 06:00:00 13.9 12 Norte 19 Norte 0 -- -- 77
2020-08-03 05:00:00 14.3 8 Norte 16 Norte 0 -- -- 76
2020-08-03 04:00:00 14.2 8 Norte 19 Noroeste 0 -- -- 76
2020-08-03 03:00:00 14.1 9 Norte 18 Norte 0 -- -- 77
2020-08-03 02:00:00 14.3 10 Noroeste 21 Norte 0 -- -- 76
2020-08-03 01:00:00 14.9 12 Norte 22 Norte 0 -- -- 75
2020-08-03 00:00:00 16.2 13 Norte 19 Norte 0 -- -- 71
2020-08-02 23:00:00 18 10 Norte 20 Norte 0 -- -- 65
2020-08-02 22:00:00 20.9 11 Sur 23 Sur 0 -- -- 83
2020-08-02 21:00:00 22.1 15 Sur 24 Nordeste 0 -- -- 77
2020-08-02 20:00:00 23.3 15 Nordeste 27 Norte 0 -- -- 54
2020-08-02 19:00:00 25.2 11 Sudeste 24 Este 0 -- -- 61
2020-08-02 18:00:00 28.1 14 Sur 29 Sur 0 -- -- 47
2020-08-02 17:00:00 30.5 9 Sur 37 Oeste 0 -- -- 40
2020-08-02 16:00:00 31 20 Oeste 39 Oeste 0 -- -- 22
2020-08-02 15:00:00 29.8 15 Oeste 50 Sudoeste 0 -- -- 26
2020-08-02 14:00:00 29.2 21 Sudoeste 33 Sudoeste 0 -- -- 25
2020-08-02 13:00:00 28.3 12 Sudoeste 28 Sudoeste 0 -- -- 27
2020-08-02 12:00:00 27.1 13 Sudoeste 25 Sudoeste 0 -- -- 29
2020-08-02 11:00:00 25.7 12 Sudoeste 24 Sudoeste 0 -- -- 33
2020-08-02 10:00:00 22.7 4 Sur 9 Sur 0 -- -- 53
2020-08-02 09:00:00 17.4 0 Calma 3 Norte 0 -- -- 71
2020-08-02 08:00:00 13.5 2 Nordeste 4 Este 0 -- -- 81
2020-08-02 07:00:00 11.7 0 Calma 7 Este 0 -- -- 85
2020-08-02 06:00:00 12.6 4 Nordeste 6 Este 0 -- -- 83
2020-08-02 05:00:00 14.1 3 Nordeste 6 Nordeste 0 -- -- 80
2020-08-02 04:00:00 14.7 2 Norte 5 Nordeste 0 -- -- 77
2020-08-02 03:00:00 14.6 0 Calma 6 Sudeste 0 -- -- 73
2020-08-02 02:00:00 15.5 4 Este 8 Este 0 -- -- 72
2020-08-02 01:00:00 17.4 0 Calma 8 Este 0 -- -- 68
2020-08-02 00:00:00 19.4 4 Este 9 Norte 0 -- -- 65
2020-08-01 23:00:00 21.7 3 Nordeste 18 Noroeste 0 -- -- 57
2020-08-01 22:00:00 24.2 11 Noroeste 21 Noroeste 0 -- -- 49
2020-08-01 21:00:00 28 14 Noroeste 31 Oeste 0 -- -- 37
2020-08-01 20:00:00 30.9 21 Oeste 41 Oeste 0 -- -- 10
2020-08-01 19:00:00 31.9 22 Oeste 42 Oeste 0 -- -- 10
2020-08-01 18:00:00 32.2 26 Oeste 41 Sudoeste 0 -- -- 9
2020-08-01 17:00:00 32.8 19 Oeste 49 Sudoeste 0 -- -- 9
2020-08-01 16:00:00 32.7 28 Oeste 51 Oeste 0 -- -- 10
2020-08-01 15:00:00 32.8 24 Oeste 44 Sudoeste 0 -- -- 12
2020-08-01 14:00:00 31.8 28 Oeste 51 Oeste 0 -- -- 13
2020-08-01 13:00:00 31.5 21 Sudoeste 48 Sudoeste 0 -- -- 19
2020-08-01 12:00:00 30 21 Oeste 30 Oeste 0 -- -- 21
2020-08-01 11:00:00 29.3 18 Sudoeste 30 Sudoeste 0 -- -- 20
2020-08-01 10:00:00 28.1 13 Sudoeste 23 Sudoeste 0 -- -- 21
2020-08-01 09:00:00 23.1 4 Sudeste 12 Este 0 -- -- 45
2020-08-01 08:00:00 16.7 10 Este 12 Este 0 -- -- 56
2020-08-01 07:00:00 14.7 0 Calma 9 Este 0 -- -- 67
2020-08-01 06:00:00 15.1 4 Este 8 Este 0 -- -- 67
2020-08-01 05:00:00 15.7 4 Este 8 Este 0 -- -- 66
2020-08-01 04:00:00 15.7 5 Sudoeste 9 Este 0 -- -- 74
2020-08-01 03:00:00 17.7 6 Este 9 Este 0 -- -- 66
2020-08-01 02:00:00 19.3 3 Este 5 Este 0 -- -- 68
2020-08-01 01:00:00 20.1 3 Sur 4 Sudoeste 0 -- -- 73
2020-08-01 00:00:00 20.9 8 Sur 18 Sudeste 0 -- -- 71
2020-07-31 23:00:00 22.1 14 Sudeste 21 Sudeste 0 -- -- 69
2020-07-31 22:00:00 24.3 6 Sur 17 Sudeste 0 -- -- 49
2020-07-31 21:00:00 26.8 12 Sudeste 34 Este 0 -- -- 44
2020-07-31 20:00:00 28.6 23 Este 39 Nordeste 0 -- -- 40
2020-07-31 19:00:00 32.9 7 Norte 36 Oeste 0 -- -- 30
2020-07-31 18:00:00 32.7 16 Oeste 36 Oeste 0 -- -- 19
2020-07-31 17:00:00 32.8 19 Sudoeste 42 Oeste 0 -- -- 21
2020-07-31 16:00:00 33.4 16 Oeste 37 Sudoeste 0 -- -- 19
2020-07-31 15:00:00 32.7 18 Sudoeste 37 Oeste 0 -- -- 21
2020-07-31 14:00:00 31.3 22 Sudoeste 37 Sudoeste 0 -- -- 24
2020-07-31 13:00:00 30.6 23 Sudoeste 36 Sudoeste 0 -- -- 27
2020-07-31 12:00:00 30 8 Sur 23 Sudeste 0 -- -- 28
2020-07-31 11:00:00 28.1 12 Sur 21 Sudeste 0 -- -- 30
2020-07-31 10:00:00 26 14 Sudeste 21 Sudeste 0 -- -- 32
2020-07-31 09:00:00 23.1 10 Sur 17 Sur 0 -- -- 40
2020-07-31 08:00:00 20.2 14 Sur 21 Sur 0 -- -- 46
2020-07-31 07:00:00 19.3 17 Sur 26 Sudeste 0 -- -- 48
2020-07-31 06:00:00 20.8 14 Sur 17 Sur 0 -- -- 37
2020-07-31 05:00:00 19.7 3 Este 8 Sur 0 -- -- 43
2020-07-31 04:00:00 21 7 Sudoeste 30 Sudeste 0 -- -- 41
2020-07-31 03:00:00 22.1 22 Sudeste 38 Sudeste 0 -- -- 38
2020-07-31 02:00:00 22.4 20 Sur 35 Sur 0 -- -- 33
2020-07-31 01:00:00 23.3 12 Sur 17 Sudeste 0 -- -- 27
2020-07-31 00:00:00 22.2 10 Sur 36 Sudeste 0 -- -- 33
2020-07-30 23:00:00 24.6 28 Sudeste 77 Este 0 -- -- 27
2020-07-30 22:00:00 23.4 25 Sur 46 Sudeste 0 -- -- 43
2020-07-30 21:00:00 24.8 24 Sudeste 37 Sudeste 0 -- -- 38
2020-07-30 20:00:00 27.2 22 Sur 39 Sudeste 0 -- -- 34
2020-07-30 19:00:00 29.1 26 Sudeste 42 Sudeste 0 -- -- 30
2020-07-30 18:00:00 30.5 20 Sudeste 40 Sudeste 0 -- -- 31
2020-07-30 17:00:00 30.4 27 Sudeste 43 Sudeste 0 -- -- 31
2020-07-30 16:00:00 30.7 30 Sudeste 43 Sur 0 -- -- 27
2020-07-30 15:00:00 30.5 25 Sudeste 38 Sudeste 0 -- -- 28
2020-07-30 14:00:00 30.9 22 Sur 37 Sur 0 -- -- 26
2020-07-30 13:00:00 30.3 19 Sur 27 Sur 0 -- -- 29
2020-07-30 12:00:00 29.9 16 Sur 23 Sur 0 -- -- 27
2020-07-30 11:00:00 28.9 14 Sur 24 Sur 0 -- -- 25
2020-07-30 10:00:00 26.3 11 Sur 17 Sudeste 0 -- -- 30
2020-07-30 09:00:00 20.9 3 Oeste 7 Este 0 -- -- 47
2020-07-30 08:00:00 18.7 0 Calma 4 Oeste 0 -- -- 47
2020-07-30 07:00:00 16.6 4 Oeste 13 Sudeste 0 -- -- 56
2020-07-30 06:00:00 17.8 12 Sur 16 Sur 0 -- -- 52
2020-07-30 05:00:00 17.7 12 Sudeste 17 Sur 0 -- -- 54
2020-07-30 04:00:00 17.5 11 Sur 16 Sur 0 -- -- 57
2020-07-30 03:00:00 16.7 10 Sur 14 Sur 0 -- -- 62
2020-07-30 02:00:00 16.8 7 Sur 21 Sudeste 0 -- -- 70
2020-07-30 01:00:00 18 15 Sur 21 Sur 0 -- -- 71
2020-07-30 00:00:00 19.1 7 Sudeste 24 Sur 0 -- -- 54
2020-07-29 23:00:00 20.3 15 Sudeste 26 Sur 0 -- -- 55
2020-07-29 22:00:00 21.2 10 Sudeste 28 Sur 0 -- -- 61
2020-07-29 21:00:00 22.9 16 Sudeste 33 Sudeste 0 -- -- 54
2020-07-29 20:00:00 24.3 19 Sur 36 Sudeste 0 -- -- 53
2020-07-29 19:00:00 27.4 24 Sur 35 Sur 0 -- -- 42
2020-07-29 18:00:00 28.4 21 Sudeste 33 Sudeste 0 -- -- 39
2020-07-29 17:00:00 28.6 23 Sudeste 36 Sudeste 0 -- -- 38
2020-07-29 16:00:00 28.2 26 Sudeste 40 Sudeste 0 -- -- 37
2020-07-29 15:00:00 28.1 22 Sudeste 40 Sudeste 0 -- -- 33
2020-07-29 14:00:00 27.9 23 Sudeste 39 Sudeste 0 -- -- 31
2020-07-29 13:00:00 27.6 27 Sur 42 Sur 0 -- -- 29
2020-07-29 12:00:00 26.2 20 Sur 35 Sur 0 -- -- 31
2020-07-29 11:00:00 24.6 16 Sudeste 27 Sudeste 0 -- -- 36
2020-07-29 10:00:00 22.7 18 Sudeste 25 Sur 0 -- -- 39
2020-07-29 09:00:00 20.5 12 Sur 18 Sudeste 0 -- -- 46
2020-07-29 08:00:00 15.8 0 Calma 11 Sur 0 -- -- 66
2020-07-29 07:00:00 15.2 5 Sur 8 Sudeste 0 -- -- 63
2020-07-29 06:00:00 14.6 0 Calma -- -- 0 -- -- 63
2020-07-29 05:00:00 15.5 0 Calma -- -- 0 -- -- 62
2020-07-29 04:00:00 15.5 0 Calma 3 Este 0 -- -- 60
2020-07-29 03:00:00 15.9 0 Calma 7 Este 0 -- -- 58
2020-07-29 02:00:00 16.4 0 Calma 6 Este 0 -- -- 62
2020-07-29 01:00:00 18.1 5 Este 6 Este 0 -- -- 56
2020-07-29 00:00:00 19.1 6 Este 23 Sur 0 -- -- 57
2020-07-28 23:00:00 20.4 14 Sur 18 Sur 0 -- -- 49
2020-07-28 22:00:00 22.4 16 Sudeste 32 Sudeste 0 -- -- 41
2020-07-28 21:00:00 24.1 23 Sudeste 35 Sudeste 0 -- -- 41
2020-07-28 20:00:00 26.7 26 Sudeste 41 Sudeste 0 -- -- 34
2020-07-28 19:00:00 28 26 Sudeste 39 Sudeste 0 -- -- 32
2020-07-28 18:00:00 29.1 23 Sudeste 46 Sudeste 0 -- -- 29
2020-07-28 17:00:00 29.2 29 Sudeste 49 Sudeste 0 -- -- 27
2020-07-28 16:00:00 29.7 29 Sudeste 49 Sudeste 0 -- -- 24
2020-07-28 15:00:00 29.9 27 Sudeste 47 Sudeste 0 -- -- 26
2020-07-28 14:00:00 29.3 26 Sudeste 42 Sudeste 0 -- -- 27
2020-07-28 13:00:00 28.9 23 Sudeste 36 Sudeste 0 -- -- 29
2020-07-28 12:00:00 28.9 18 Sur 30 Sur 0 -- -- 29
2020-07-28 11:00:00 27.7 15 Sur 23 Sur 0 -- -- 30
2020-07-28 10:00:00 25.8 17 Sudeste 23 Sudeste 0 -- -- 32
2020-07-28 09:00:00 23.7 9 Sur 17 Sur 0 -- -- 34
2020-07-28 08:00:00 21 13 Sur 19 Sur 0 -- -- 36
2020-07-28 07:00:00 20.7 14 Sur 21 Sur 0 -- -- 36
2020-07-28 06:00:00 21 15 Sur 25 Sur 0 -- -- 35
2020-07-28 05:00:00 21.3 15 Sur 26 Sur 0 -- -- 37
2020-07-28 04:00:00 21.2 14 Sur 24 Sur 0 -- -- 42
2020-07-28 03:00:00 20.4 14 Sur 24 Sur 0 -- -- 47
2020-07-28 02:00:00 21.6 17 Sur 28 Sur 0 -- -- 45
2020-07-28 01:00:00 22.6 20 Sur 31 Sur 0 -- -- 45
2020-07-28 00:00:00 23.5 19 Sur 30 Sudeste 0 -- -- 45
2020-07-27 23:00:00 23.4 16 Sur 29 Sur 0 -- -- 47
2020-07-27 22:00:00 24.4 18 Sur 33 Sur 0 -- -- 47
2020-07-27 21:00:00 26.4 19 Sudeste 32 Sudeste 0 -- -- 44
2020-07-27 20:00:00 29.1 19 Sur 35 Sudeste 0 -- -- 38
2020-07-27 19:00:00 31 23 Sudeste 38 Sudeste 0 -- -- 34
2020-07-27 18:00:00 32.7 23 Sudeste 38 Sur 0 -- -- 25
2020-07-27 17:00:00 34.3 17 Sur 33 Sur 0 -- -- 21
2020-07-27 16:00:00 33.4 18 Sudeste 35 Sur 0 -- -- 21
2020-07-27 15:00:00 33.3 17 Sur 38 Sudoeste 0 -- -- 22
2020-07-27 14:00:00 31.8 20 Sur 38 Sur 0 -- -- 24
2020-07-27 13:00:00 31.3 17 Sur 35 Sur 0 -- -- 25
2020-07-27 12:00:00 29.6 19 Sur 33 Sudeste 0 -- -- 28
2020-07-27 09:00:00 -- -- -- -- -- -- -- -- --
2020-07-27 08:00:00 18.7 14 Sur 21 Sur 0 -- -- 67
2020-07-27 07:00:00 17.3 16 Sur 26 Sur 0 -- -- 80
2020-07-27 06:00:00 17.5 17 Sur 24 Sur 0 -- -- 82
2020-07-27 05:00:00 17.7 19 Sur 24 Sur 0 -- -- 81
2020-07-27 04:00:00 18.2 15 Sur 17 Sur 0 -- -- 74
2020-07-27 03:00:00 18.3 12 Sur 16 Sur 0 -- -- 74
2020-07-27 02:00:00 17.8 11 Sur 19 Sur 0 -- -- 81
2020-07-27 01:00:00 17.6 16 Sur 21 Sur 0 -- -- 84
2020-07-27 00:00:00 18.2 7 Sudoeste 14 Sur 0 -- -- 82
2020-07-26 23:00:00 19.2 5 Sur 20 Sur 0 -- -- 78
2020-07-26 22:00:00 20.7 13 Sur 19 Sur 0 -- -- 73
2020-07-26 21:00:00 23.6 13 Sur 23 Sudeste 0 -- -- 62
2020-07-26 20:00:00 26 15 Sudeste 31 Sur 0 -- -- 55
2020-07-26 19:00:00 27.3 24 Sudeste 34 Sudeste 0 -- -- 51
2020-07-26 18:00:00 30.1 21 Sudeste 31 Sudeste 0 -- -- 40
2020-07-26 17:00:00 31 17 Sur 32 Sur 0 -- -- 31
2020-07-26 16:00:00 30.3 18 Sur 36 Sudeste 0 -- -- 30
2020-07-26 15:00:00 30.6 11 Sudeste 41 Sudoeste 0 -- -- 30
2020-07-26 14:00:00 30.5 17 Oeste 63 Sudoeste 0 -- -- 26
2020-07-26 13:00:00 30.2 17 Sudoeste 31 Sudoeste 0 -- -- 32
2020-07-26 12:00:00 29 9 Sur 23 Sudeste 0 -- -- 35
2020-07-26 11:00:00 26.6 12 Sur 20 Sur 0 -- -- 45
2020-07-26 10:00:00 23.6 15 Sur 20 Sur 0 -- -- 58
2020-07-26 09:00:00 19.6 3 Noroeste 9 Sudoeste 0 -- -- 70
2020-07-26 08:00:00 15.5 0 Calma 8 Este 0 -- -- 80
2020-07-26 07:00:00 15.1 5 Este 11 Este 0 -- -- 81
2020-07-26 06:00:00 16.4 6 Este 11 Este 0 -- -- 76
2020-07-26 05:00:00 17.2 0 Calma 8 Sudeste 0 -- -- 73
2020-07-26 04:00:00 16.8 5 Sur 9 Sur 0 -- -- 79
2020-07-26 03:00:00 17.2 9 Sur 13 Sur 0 -- -- 80
2020-07-26 02:00:00 17 3 Este 4 Este 0 -- -- 89
2020-07-26 01:00:00 17.1 2 Nordeste 12 Sur 0 -- -- 89
2020-07-26 00:00:00 17.6 8 Sur 19 Sur 0 -- -- 87
2020-07-25 23:00:00 18.7 12 Sur 21 Sur 0 -- -- 82
2020-07-25 22:00:00 20.5 10 Sur 22 Sudeste 0 -- -- 73
2020-07-25 21:00:00 22.7 14 Sudeste 33 Sur 0 -- -- 63
2020-07-25 20:00:00 24.4 21 Sudeste 33 Sudeste 0 -- -- 58
2020-07-25 19:00:00 26.1 23 Sudeste 35 Sudeste 0 -- -- 53
2020-07-25 18:00:00 26.5 21 Sudeste 33 Sudeste 0 -- -- 50
2020-07-25 17:00:00 27.9 19 Sudeste 30 Sudeste 0 -- -- 40
2020-07-25 16:00:00 29.6 20 Sur 34 Sur 0 -- -- 31
2020-07-25 15:00:00 29.1 19 Sur 38 Sudeste 0 -- -- 34
2020-07-25 14:00:00 27.2 17 Sudeste 29 Sur 0 -- -- 36
2020-07-25 13:00:00 25.8 18 Sur 27 Sur 0 -- -- 38
2020-07-25 12:00:00 24 15 Sur 24 Sur 0 -- -- 43
2020-07-25 11:00:00 22.4 14 Sur 24 Sudeste 0 -- -- 47
2020-07-25 10:00:00 20.5 12 Sur 19 Sudeste 0 -- -- 53
2020-07-25 09:00:00 16.7 5 Sur 9 Sur 0 -- -- 70
2020-07-25 08:00:00 12.9 0 Calma 9 Sudeste 0 -- -- 85
2020-07-25 07:00:00 11.3 2 Norte 5 Sudeste 0 -- -- 88
2020-07-25 06:00:00 11.9 0 Calma 9 Este 0 -- -- 87
2020-07-25 05:00:00 13.1 0 Calma 4 Este 0 -- -- 84
2020-07-25 04:00:00 13.7 4 Este 6 Este 0 -- -- 83
2020-07-25 03:00:00 14.5 0 Calma 4 Este 0 -- -- 80
2020-07-25 02:00:00 14.9 3 Este 8 Este 0 -- -- 78
2020-07-25 01:00:00 16 3 Este 5 Nordeste 0 -- -- 74
2020-07-25 00:00:00 16.7 0 Calma 10 Este 0 -- -- 71
2020-07-24 23:00:00 18.3 0 Calma 23 Sudeste 0 -- -- 63
2020-07-24 22:00:00 19.4 17 Sur 26 Sur 0 -- -- 62
2020-07-24 21:00:00 22.4 17 Sur 27 Sur 0 -- -- 55
2020-07-24 20:00:00 24.9 12 Sur 18 Norte 0 -- -- 45
2020-07-24 19:00:00 26.3 10 Este 23 Nordeste 0 -- -- 44
2020-07-24 18:00:00 25.9 9 Nordeste 24 Nordeste 0 -- -- 41
2020-07-24 17:00:00 26.7 4 Sur 21 Sur 0 -- -- 33
2020-07-24 16:00:00 27 16 Sur 26 Sur 0 -- -- 33
2020-07-24 15:00:00 27.3 12 Sur 21 Sur 0 -- -- 31
2020-07-24 14:00:00 27.7 14 Sur 25 Sur 0 -- -- 28
2020-07-24 13:00:00 26.5 14 Sudeste 25 Sudeste 0 -- -- 30
2020-07-24 12:00:00 25.4 12 Sur 25 Sudeste 0 -- -- 30
2020-07-24 11:00:00 20.7 7 Sur 21 Sudeste 0 -- -- 40
2020-07-24 10:00:00 19.5 5 Norte 24 Noroeste 0 -- -- 49
2020-07-24 09:00:00 18.1 4 Este 8 Este 0 -- -- 52
2020-07-24 08:00:00 14.4 3 Este 10 Este 0 -- -- 59
2020-07-24 07:00:00 12.1 3 Nordeste 9 Sudeste 0 -- -- 58
2020-07-24 06:00:00 13.6 3 Nordeste 8 Este 0 -- -- 58
2020-07-24 05:00:00 13.3 7 Este 11 Este 0 -- -- 58
2020-07-24 04:00:00 13.3 5 Sudeste 12 Sudeste 0 -- -- 64
2020-07-24 03:00:00 15.1 3 Este 12 Este 0 -- -- 58
2020-07-24 02:00:00 16.1 5 Sur 15 Este 0 -- -- 55
2020-07-24 01:00:00 17.9 4 Este 7 Este 0 -- -- 52
2020-07-24 00:00:00 19.2 4 Norte 16 Sudeste 0 -- -- 46
2020-07-23 23:00:00 20.4 13 Sur 18 Sudeste 0 -- -- 43
2020-07-23 22:00:00 21.8 7 Sur 27 Sudeste 0 -- -- 40
2020-07-23 21:00:00 22.8 11 Sudeste 35 Sur 0 -- -- 37
2020-07-23 20:00:00 24.3 18 Sudeste 31 Sudeste 0 -- -- 35
2020-07-23 19:00:00 26.1 20 Sudeste 33 Sudeste 0 -- -- 27
2020-07-23 18:00:00 30.3 9 Noroeste 25 Noroeste 0 -- -- 22
2020-07-23 17:00:00 29.8 11 Oeste 26 Oeste 0 -- -- 21
2020-07-23 16:00:00 29.5 8 Sur 21 Noroeste 0 -- -- 18
2020-07-23 15:00:00 29.2 8 Oeste 26 Oeste 0 -- -- 19
2020-07-23 14:00:00 27.7 7 Oeste 22 Oeste 0 -- -- 18
2020-07-23 13:00:00 27.1 9 Sur 19 Nordeste 0 -- -- 19
2020-07-23 12:00:00 25.8 6 Nordeste 15 Noroeste 0 -- -- 24
2020-07-23 11:00:00 24.3 8 Norte 16 Norte 0 -- -- 29
2020-07-23 10:00:00 22.3 10 Norte 17 Norte 0 -- -- 34
2020-07-23 09:00:00 16.6 7 Nordeste 9 Nordeste 0 -- -- 46
2020-07-23 08:00:00 11 3 Este 9 Nordeste 0 -- -- 58
2020-07-23 07:00:00 8.7 4 Este 8 Este 0 -- -- 69
2020-07-23 06:00:00 9.8 10 Este 11 Este 0 -- -- 61
2020-07-23 05:00:00 9.7 2 Norte 7 Este 0 -- -- 65
2020-07-23 04:00:00 10 0 Calma 9 Este 0 -- -- 66
2020-07-23 03:00:00 10.8 2 Sur 11 Este 0 -- -- 69
2020-07-23 02:00:00 12.6 3 Sudeste 9 Este 0 -- -- 60
2020-07-23 01:00:00 12.8 2 Noroeste 21 Este 0 -- -- 60
2020-07-23 00:00:00 13.7 5 Este 8 Sudeste 0 -- -- 51
2020-07-22 23:00:00 16.5 5 Sudeste 7 Sudoeste 0 -- -- 44
2020-07-22 22:00:00 17.5 7 Sur 15 Sur 0 -- -- 43
2020-07-22 21:00:00 20.3 10 Sur 25 Sudeste 0 -- -- 36
2020-07-22 20:00:00 21.7 21 Sudeste 30 Sudeste 0 -- -- 36
2020-07-22 19:00:00 22.4 18 Sur 30 Sur 0 -- -- 32
2020-07-22 18:00:00 21.6 18 Sudeste 31 Sudeste 0 -- -- 42
2020-07-22 17:00:00 21 14 Sudeste 26 Sur 0 -- -- 42
2020-07-22 16:00:00 18.2 11 Sudoeste 35 Este 1 -- -- 66
2020-07-22 15:00:00 17.3 26 Sur 40 Sur 0.6 -- -- 70
2020-07-22 14:00:00 21.4 9 Sur 24 Sudeste 0.4 -- -- 45
2020-07-22 13:00:00 21.4 11 Sudoeste 22 Sudeste 0 -- -- 33
2020-07-22 12:00:00 19.2 3 Este 31 Nordeste 0 -- -- 42
2020-07-22 11:00:00 17.6 4 Sudeste 15 Este 0 -- -- 50
2020-07-22 10:00:00 15.5 6 Nordeste 30 Sudoeste 0 -- -- 57
2020-07-22 09:00:00 15.7 6 Sur 29 Sur 0.2 -- -- 50
2020-07-22 08:00:00 15.3 6 Noroeste 15 Sudoeste 0 -- -- 63
2020-07-22 07:00:00 14.6 4 Sudoeste 12 Sur 0 -- -- 59
2020-07-22 06:00:00 15.9 11 Sudeste 21 Sur 0 -- -- 53
2020-07-22 05:00:00 15.4 10 Sudoeste 35 Este 0 -- -- 48
2020-07-22 04:00:00 15.5 14 Sur 27 Sur 0.2 -- -- 60
2020-07-22 03:00:00 15.7 3 Sudoeste 11 Sudeste 0 -- -- 73
2020-07-22 02:00:00 16.4 10 Sur 15 Sur 0 -- -- 73
2020-07-22 01:00:00 17.6 10 Sur 19 Sur 0 -- -- 69
2020-07-22 00:00:00 18.1 7 Sur 14 Sur 0 -- -- 64
2020-07-21 23:00:00 18.3 9 Sur 24 Sur 0 -- -- 70
2020-07-21 22:00:00 19.5 17 Sur 26 Sudeste 0 -- -- 64
2020-07-21 21:00:00 21.7 19 Sur 31 Sudeste 0 -- -- 56
2020-07-21 20:00:00 24.2 22 Sudeste 33 Sudeste 0 -- -- 51
2020-07-21 19:00:00 25.8 22 Sudeste 38 Sudeste 0 -- -- 46
2020-07-21 18:00:00 26.4 22 Sudeste 43 Sudeste 0 -- -- 47
2020-07-21 17:00:00 27.7 24 Sudeste 43 Sudeste 0 -- -- 39
2020-07-21 16:00:00 28 21 Sudeste 36 Sudeste 0 -- -- 41
2020-07-21 15:00:00 28.4 23 Sudeste 36 Sudeste 0 -- -- 32
2020-07-21 14:00:00 28.6 17 Sudeste 36 Sudeste 0 -- -- 29
2020-07-21 13:00:00 28 15 Sur 31 Sudeste 0 -- -- 32
2020-07-21 12:00:00 26.5 15 Sudeste 27 Sudeste 0 -- -- 36
2020-07-21 11:00:00 24.5 18 Sudeste 27 Sudeste 0 -- -- 39
2020-07-21 10:00:00 22.9 14 Sudeste 23 Sur 0 -- -- 47
2020-07-21 09:00:00 21.1 15 Sudeste 22 Sudeste 0 -- -- 51
2020-07-21 08:00:00 18.1 10 Sudeste 15 Sudeste 0 -- -- 64
2020-07-21 07:00:00 15.5 4 Sudeste 12 Sur 0 -- -- 74
2020-07-21 06:00:00 16 9 Sur 17 Sur 0 -- -- 74
2020-07-21 05:00:00 16 12 Sur 15 Sudeste 0 -- -- 77
2020-07-21 04:00:00 15.9 11 Sur 14 Sur 0 -- -- 81
2020-07-21 03:00:00 16 9 Sur 20 Sur 0 -- -- 88
2020-07-21 02:00:00 16.4 14 Sur 21 Sur 0 -- -- 97
2020-07-21 01:00:00 16.8 13 Sur 19 Sur 0 -- -- 94
2020-07-21 00:00:00 17.8 17 Sur 28 Sur 0 -- -- 91
2020-07-20 23:00:00 18.5 15 Sudeste 28 Sur 0 -- -- 92
2020-07-20 22:00:00 19.1 17 Sur 24 Sur 0 -- -- 90
2020-07-20 21:00:00 22.2 13 Sur 32 Sudeste 0 -- -- 75
2020-07-20 20:00:00 23.7 23 Sudeste 35 Sudeste 0 -- -- 64
2020-07-20 19:00:00 25.5 23 Sudeste 39 Sudeste 0 -- -- 55
2020-07-20 18:00:00 27.1 23 Sur 40 Sudeste 0 -- -- 44
2020-07-20 17:00:00 27.5 27 Sudeste 39 Sudeste 0 -- -- 42
2020-07-20 16:00:00 28.9 19 Sur 36 Sudeste 0 -- -- 40
2020-07-20 15:00:00 29 14 Sudeste 40 Sudeste 0 -- -- 34
2020-07-20 14:00:00 27.8 14 Sudeste 29 Sudeste 0 -- -- 33
2020-07-20 13:00:00 26.4 17 Sudeste 30 Sur 0 -- -- 37
2020-07-20 12:00:00 24.7 14 Sur 26 Sudeste 0 -- -- 46
2020-07-20 11:00:00 22.7 18 Sudeste 26 Sur 0 -- -- 54
2020-07-20 10:00:00 21.9 12 Sur 19 Sur 0 -- -- 59
2020-07-20 09:00:00 18.6 11 Sur 17 Sur 0 -- -- 74
2020-07-20 08:00:00 16.2 2 Nordeste 9 Sur 0 -- -- 83
2020-07-20 07:00:00 15.1 2 Este 14 Sur 0 -- -- 86
2020-07-20 06:00:00 15.7 14 Sur 19 Sur 0 -- -- 82
2020-07-20 05:00:00 15.8 3 Sudeste 12 Sudeste 0 -- -- 77
2020-07-20 04:00:00 16.2 4 Este 13 Sur 0 -- -- 80
2020-07-20 03:00:00 16.9 9 Sur 15 Sur 0 -- -- 83
2020-07-20 02:00:00 17 11 Sudeste 18 Sur 0 -- -- 87
2020-07-20 01:00:00 16.8 12 Sur 18 Sur 0 -- -- 94
2020-07-20 00:00:00 17.2 10 Sur 18 Sur 0 -- -- 94
2020-07-19 23:00:00 17.6 16 Sur 30 Sur 0 -- -- 90
2020-07-19 22:00:00 18.9 16 Sur 33 Sur 0 -- -- 88
2020-07-19 21:00:00 20.8 14 Sur 26 Sur 0 -- -- 79
2020-07-19 20:00:00 23.9 15 Sudeste 29 Sur 0 -- -- 67
2020-07-19 19:00:00 25.3 23 Sur 37 Sur 0 -- -- 65
2020-07-19 18:00:00 25.8 22 Sur 34 Sur 0 -- -- 58
2020-07-19 17:00:00 25.6 24 Sudeste 35 Sudeste 0 -- -- 55
2020-07-19 16:00:00 27.9 13 Sudoeste 30 Oeste 0 -- -- 37
2020-07-19 15:00:00 29.2 18 Noroeste 37 Sudoeste 0 -- -- 27
2020-07-19 14:00:00 28.9 19 Oeste 36 Sudoeste 0 -- -- 29
2020-07-19 13:00:00 27.5 8 Sudoeste 23 Sur 0 -- -- 37
2020-07-19 12:00:00 26 10 Sudeste 21 Sur 0 -- -- 42
2020-07-19 11:00:00 24 14 Sur 24 Sur 0 -- -- 50
2020-07-19 10:00:00 21.8 17 Sur 23 Sur 0 -- -- 56
2020-07-19 09:00:00 19.8 12 Sur 17 Sudeste 0 -- -- 58
2020-07-19 08:00:00 16.6 4 Sudeste 11 Sur 0 -- -- 74
2020-07-19 07:00:00 14.1 3 Este 13 Sur 0 -- -- 83
2020-07-19 06:00:00 14.9 8 Sur 12 Sur 0 -- -- 80
2020-07-19 05:00:00 15.4 8 Sur 13 Sur 0 -- -- 94
2020-07-19 04:00:00 15.8 10 Sur 15 Sudeste 0 -- -- 92
2020-07-19 03:00:00 16.1 11 Sur 18 Sur 0 -- -- 91
2020-07-19 02:00:00 16.5 10 Sur 15 Sudeste 0 -- -- 90
2020-07-19 01:00:00 17 8 Sur 20 Sur 0 -- -- 93
2020-07-19 00:00:00 17.5 13 Sur 21 Sur 0 -- -- 93
2020-07-18 23:00:00 18.1 15 Sur 23 Sur 0 -- -- 89
2020-07-18 22:00:00 19.6 18 Sur 26 Sur 0 -- -- 82
2020-07-18 21:00:00 22.3 15 Sur 27 Sur 0 -- -- 68
2020-07-18 20:00:00 24.5 19 Sur 30 Sur 0 -- -- 59
2020-07-18 19:00:00 27.2 18 Sur 30 Sudoeste 0 -- -- 48
2020-07-18 18:00:00 28.8 7 Oeste 28 Oeste 0 -- -- 27
2020-07-18 17:00:00 28.3 10 Oeste 31 Oeste 0 -- -- 27
2020-07-18 16:00:00 27.5 10 Noroeste 28 Noroeste 0 -- -- 30
2020-07-18 15:00:00 26.8 9 Norte 20 Oeste 0 -- -- 28
2020-07-18 14:00:00 25.5 9 Noroeste 25 Sudoeste 0 -- -- 31
2020-07-18 13:00:00 24.4 10 Oeste 24 Oeste 0 -- -- 34
2020-07-18 12:00:00 22.5 17 Oeste 27 Sudoeste 0 -- -- 49
2020-07-18 11:00:00 21.4 12 Sur 25 Sur 0 -- -- 57
2020-07-18 10:00:00 19.5 13 Sudeste 21 Sur 0 -- -- 62
2020-07-18 09:00:00 17.6 12 Sur 19 Sudeste 0 -- -- 69
2020-07-18 08:00:00 15.7 10 Sudeste 19 Sudeste 0 -- -- 85
2020-07-18 07:00:00 14.8 10 Sudeste 20 Sur 0 -- -- 90
2020-07-18 06:00:00 13.2 8 Sur 15 Sur 0 -- -- 92
2020-07-18 05:00:00 12.3 0 Calma 8 Este 0 -- -- 95
2020-07-18 04:00:00 13.2 6 Este 8 Este 0 -- -- 89
2020-07-18 03:00:00 14.2 0 Calma 5 Nordeste 0 -- -- 81
2020-07-18 02:00:00 14 3 Nordeste 6 Nordeste 0 -- -- 77
2020-07-18 01:00:00 14.1 3 Este 6 Este 0 -- -- 74
2020-07-18 00:00:00 15.2 0 Calma 5 Sudeste 0 -- -- 63
2020-07-17 23:00:00 15.9 3 Sur 9 Este 0 -- -- 56
2020-07-17 22:00:00 18.7 0 Calma 14 Nordeste 0 -- -- 46
2020-07-17 21:00:00 21.9 10 Nordeste 24 Norte 0 -- -- 36
2020-07-17 20:00:00 23.6 15 Norte 28 Norte 0 -- -- 33
2020-07-17 19:00:00 24.6 18 Norte 30 Norte 0 -- -- 30
2020-07-17 18:00:00 26.1 12 Norte 30 Oeste 0 -- -- 29
2020-07-17 17:00:00 26.3 12 Noroeste 35 Oeste 0 -- -- 32
2020-07-17 16:00:00 25.9 10 Noroeste 26 Oeste 0 -- -- 32
2020-07-17 15:00:00 25 9 Noroeste 28 Norte 0 -- -- 30
2020-07-17 14:00:00 24.5 12 Sudoeste 28 Oeste 0 -- -- 37
2020-07-17 13:00:00 23.8 9 Noroeste 19 Oeste 0 -- -- 39
2020-07-17 12:00:00 22.8 6 Noroeste 17 Oeste 0 -- -- 36
2020-07-17 11:00:00 22 8 Noroeste 14 Noroeste 0 -- -- 30
2020-07-17 10:00:00 19.7 3 Nordeste 9 Nordeste 0 -- -- 40
2020-07-17 09:00:00 16.5 2 Nordeste 5 Nordeste 0 -- -- 54
2020-07-17 08:00:00 11.3 0 Calma 0 Calma 0 -- -- 68
2020-07-17 07:00:00 9.7 0 Calma 5 Nordeste 0 -- -- 65
2020-07-17 06:00:00 9.9 2 Sudeste 10 Este 0 -- -- 59
2020-07-17 05:00:00 10.7 5 Este 9 Este 0 -- -- 66
2020-07-17 04:00:00 11.8 5 Sudeste 10 Sudeste 0 -- -- 67
2020-07-17 03:00:00 13.2 3 Oeste 12 Nordeste 0 -- -- 65
2020-07-17 02:00:00 13.4 7 Nordeste 10 Nordeste 0 -- -- 69
2020-07-17 01:00:00 14.5 4 Nordeste 6 Norte 0 -- -- 68
2020-07-17 00:00:00 15.5 5 Nordeste 8 Nordeste 0 -- -- 64
2020-07-16 23:00:00 17.4 3 Norte 6 Norte 0 -- -- 55
2020-07-16 22:00:00 19.2 3 Nordeste 9 Norte 0 -- -- 49
2020-07-16 21:00:00 22.3 9 Nordeste 27 Norte 0 -- -- 41
2020-07-16 20:00:00 23.4 18 Norte 28 Norte 0 -- -- 40
2020-07-16 19:00:00 24.7 18 Norte 29 Norte 0 -- -- 39
2020-07-16 18:00:00 26.1 15 Norte 29 Oeste 0 -- -- 38
2020-07-16 17:00:00 26 15 Oeste 27 Noroeste 0 -- -- 33
2020-07-16 16:00:00 25.8 15 Noroeste 29 Sudoeste 0 -- -- 36
2020-07-16 15:00:00 25.6 13 Noroeste 24 Noroeste 0 -- -- 38
2020-07-16 14:00:00 23.9 11 Noroeste 22 Noroeste 0 -- -- 41
2020-07-16 13:00:00 22.7 10 Noroeste 23 Noroeste 0 -- -- 43
2020-07-16 12:00:00 21.1 10 Oeste 18 Oeste 0 -- -- 47
2020-07-16 11:00:00 19.9 13 Oeste 20 Oeste 0 -- -- 57
2020-07-16 10:00:00 19 4 Noroeste 10 Este 0 -- -- 50
2020-07-16 09:00:00 15.8 4 Nordeste 7 Nordeste 0 -- -- 49
2020-07-16 08:00:00 11.8 3 Nordeste 7 Este 0 -- -- 73
2020-07-16 07:00:00 8.7 7 Este 13 Este 0 -- -- 86
2020-07-16 06:00:00 9.2 5 Este 10 Este 0 -- -- 88
2020-07-16 05:00:00 10.2 4 Este 9 Este 0 -- -- 86
2020-07-16 04:00:00 10.5 3 Nordeste 8 Nordeste 0 -- -- 85
2020-07-16 03:00:00 10.8 3 Nordeste 11 Este 0 -- -- 87
2020-07-16 02:00:00 11.5 3 Nordeste 12 Este 0 -- -- 84
2020-07-16 01:00:00 12.7 6 Este 10 Noroeste 0 -- -- 77
2020-07-16 00:00:00 13.9 4 Nordeste 13 Norte 0 -- -- 73
2020-07-15 23:00:00 15.3 6 Norte 15 Nordeste 0 -- -- 68
2020-07-15 22:00:00 17 9 Norte 22 Norte 0 -- -- 61
2020-07-15 21:00:00 20.2 13 Norte 24 Norte 0 -- -- 48
2020-07-15 20:00:00 21.9 16 Norte 26 Nordeste 0 -- -- 44
2020-07-15 19:00:00 23.1 15 Norte 31 Noroeste 0 -- -- 41
2020-07-15 18:00:00 24.4 14 Noroeste 35 Noroeste 0 -- -- 30
2020-07-15 17:00:00 23.9 20 Noroeste 28 Noroeste 0 -- -- 35
2020-07-15 16:00:00 23.1 9 Noroeste 30 Noroeste 0 -- -- 36
2020-07-15 15:00:00 22.5 12 Noroeste 23 Oeste 0 -- -- 36
2020-07-15 14:00:00 22 12 Noroeste 21 Oeste 0 -- -- 41
2020-07-15 13:00:00 20.8 9 Nordeste 17 Nordeste 0 -- -- 41
2020-07-15 12:00:00 19.3 7 Oeste 15 Oeste 0 -- -- 47
2020-07-15 11:00:00 18.2 8 Norte 15 Noroeste 0 -- -- 39
2020-07-15 10:00:00 16.6 7 Norte 14 Norte 0 -- -- 41
2020-07-15 09:00:00 13.7 3 Norte 8 Este 0 -- -- 57
2020-07-15 08:00:00 9.7 5 Este 8 Este 0 -- -- 81
2020-07-15 07:00:00 7.5 6 Este 9 Este 0 -- -- 84
2020-07-15 06:00:00 7.6 7 Este 9 Este 0 -- -- 89
2020-07-15 05:00:00 8.1 5 Este 9 Este 0 -- -- 88
2020-07-15 04:00:00 8.8 6 Este 8 Este 0 -- -- 87
2020-07-15 03:00:00 9.6 6 Nordeste 8 Nordeste 0 -- -- 88
2020-07-15 02:00:00 10.5 4 Nordeste 8 Nordeste 0 -- -- 91
2020-07-15 01:00:00 11.6 5 Este 10 Este 0 -- -- 95
2020-07-15 00:00:00 13 3 Oeste 6 Oeste 0 -- -- 94
2020-07-14 23:00:00 14.2 6 Sur 18 Sur 0 -- -- 91
2020-07-14 22:00:00 15.6 4 Sudeste 10 Sur 0 -- -- 81
2020-07-14 21:00:00 18.5 7 Sur 17 Sur 0 -- -- 69
2020-07-14 20:00:00 20.2 4 Sur 20 Sudeste 0 -- -- 62
2020-07-14 19:00:00 18.8 12 Sudeste 25 Sur 0 -- -- 70
2020-07-14 18:00:00 18 13 Sudeste 20 Sur 0 -- -- 75
2020-07-14 17:00:00 17 7 Este 28 Sudeste 0 -- -- 76
2020-07-14 16:00:00 17.5 19 Sudeste 32 Sur 0 -- -- 75
2020-07-14 15:00:00 18.9 18 Sur 36 Sur 0 -- -- 67
2020-07-14 14:00:00 21.4 10 Sur 20 Sudeste 0 -- -- 65
2020-07-14 13:00:00 20.7 13 Sudeste 22 Sudeste 0 -- -- 65
2020-07-14 12:00:00 20.2 12 Sudeste 21 Sudeste 0 -- -- 67
2020-07-14 11:00:00 19.5 10 Sudeste 19 Sudeste 0 -- -- 71
2020-07-14 10:00:00 18.7 5 Sur 12 Sur 0 -- -- 73
2020-07-14 09:00:00 15.5 4 Este 6 Este 0 -- -- 83
2020-07-14 08:00:00 12.7 3 Este 6 Oeste 0 -- -- 90
2020-07-14 07:00:00 11.3 0 Calma 5 Nordeste 0 -- -- 93
2020-07-14 06:00:00 10.8 4 Sudoeste 5 Oeste 0 -- -- 92
2020-07-14 05:00:00 11.1 3 Sudeste 15 Este 0 -- -- 90
2020-07-14 04:00:00 11.7 9 Este 10 Este 0 -- -- 88
2020-07-14 03:00:00 12.5 2 Nordeste 6 Norte 0 -- -- 84
2020-07-14 02:00:00 13.3 3 Norte 9 Noroeste 0 -- -- 80
2020-07-14 01:00:00 14.3 5 Noroeste 10 Norte 0 -- -- 77
2020-07-14 00:00:00 16 5 Norte 9 Norte 0 -- -- 72